createdAt,value
2022-10-14T16:42:09.238Z,12.70
2022-10-14T16:45:13.364Z,12.86
2022-10-14T16:48:17.371Z,12.96
2022-10-14T16:54:29.388Z,12.87
2022-10-14T16:57:34.226Z,12.65
2022-10-14T17:00:37.756Z,12.78
2022-10-14T17:03:44.606Z,12.75
2022-10-14T17:06:49.029Z,12.96
2022-10-14T17:09:53.971Z,12.98
2022-10-14T17:12:58.915Z,13.09
2022-10-14T17:16:03.402Z,13.03
2022-10-14T17:19:06.967Z,12.89
2022-10-14T17:22:10.561Z,12.73
2022-10-14T17:25:14.530Z,12.82
2022-10-14T17:28:20.461Z,13.06
2022-10-14T17:31:24.925Z,12.99
2022-10-14T17:34:28.547Z,13.13
2022-10-14T17:37:35.003Z,13.07
2022-10-14T17:40:38.587Z,12.84
2022-10-14T17:43:45.902Z,12.80
2022-10-14T17:46:49.500Z,12.84
2022-10-14T17:49:54.084Z,12.77
2022-10-14T17:52:58.839Z,12.63
2022-10-14T17:56:04.288Z,12.69
2022-10-14T17:59:14.015Z,12.74
2022-10-14T18:02:18.898Z,12.65
2022-10-14T18:05:22.415Z,12.65
2022-10-14T18:08:25.933Z,12.69
2022-10-14T18:11:49.721Z,12.47
2022-10-14T18:14:56.996Z,12.31
2022-10-14T18:18:00.537Z,12.21
2022-10-14T18:21:04.583Z,12.11
2022-10-14T18:24:08.569Z,12.06
2022-10-14T18:27:12.404Z,12.10
2022-10-14T18:30:17.329Z,12.13
2022-10-14T18:33:20.974Z,12.22
2022-10-14T18:36:25.966Z,12.19
2022-10-14T18:39:29.569Z,12.25
2022-10-14T18:42:33.123Z,12.20
2022-10-14T18:45:38.084Z,12.43
2022-10-14T18:48:43.187Z,12.39
2022-10-14T18:51:47.106Z,12.36
2022-10-14T18:54:50.729Z,12.28
2022-10-14T18:57:54.335Z,12.09
2022-10-14T19:00:59.271Z,12.28
2022-10-14T19:04:04.690Z,12.18
2022-10-14T19:07:08.461Z,12.28
2022-10-14T19:10:12.121Z,12.62
2022-10-14T19:13:15.639Z,12.71
2022-10-14T19:16:22.703Z,12.59
2022-10-14T19:19:26.230Z,12.45
2022-10-14T19:22:30.650Z,12.42
2022-10-14T19:25:36.422Z,12.44
2022-10-14T19:28:40.164Z,12.49
2022-10-14T19:31:45.654Z,12.49
2022-10-14T19:34:49.240Z,12.38
2022-10-14T19:37:52.847Z,12.25
2022-10-14T19:40:59.645Z,12.11
2022-10-14T19:44:03.933Z,11.96
2022-10-14T19:47:09.046Z,11.67
2022-10-14T19:50:12.606Z,11.86
2022-10-14T19:53:16.302Z,11.79
2022-10-14T19:56:20.681Z,11.62
2022-10-14T19:59:24.364Z,11.64
2022-10-14T20:02:29.487Z,11.65
2022-10-14T20:05:33.130Z,11.70
2022-10-14T20:08:37.480Z,11.87
2022-10-14T20:11:41.216Z,11.86
2022-10-14T20:14:44.787Z,11.61
2022-10-14T20:17:49.773Z,11.53
2022-10-14T20:20:53.950Z,11.72
2022-10-14T20:23:58.887Z,11.93
2022-10-14T20:27:04.562Z,11.86
2022-10-14T20:30:11.719Z,11.94
2022-10-14T20:33:16.666Z,11.99
2022-10-14T20:36:21.585Z,11.94
2022-10-14T20:39:25.230Z,12.05
2022-10-14T20:42:28.827Z,12.10
2022-10-14T20:45:32.431Z,12.10
2022-10-14T20:48:37.986Z,12.12
2022-10-14T20:51:42.233Z,12.08
2022-10-14T20:54:45.819Z,11.94
2022-10-14T20:57:49.401Z,11.92
2022-10-14T21:00:52.963Z,11.94
2022-10-14T21:04:01.333Z,12.03
2022-10-14T21:07:04.917Z,12.12
2022-10-14T21:10:09.539Z,12.15
2022-10-14T21:13:13.136Z,11.90
2022-10-14T21:16:20.341Z,11.95
2022-10-14T21:19:25.426Z,11.89
2022-10-14T21:22:28.996Z,12.05
2022-10-14T21:25:32.720Z,12.23
2022-10-14T21:28:36.541Z,12.10
2022-10-14T21:31:40.743Z,12.18
2022-10-14T21:34:45.683Z,12.24
2022-10-14T21:37:49.266Z,12.08
2022-10-14T21:40:52.999Z,12.32
2022-10-14T21:43:58.816Z,12.21
2022-10-14T21:47:03.371Z,12.31
2022-10-14T21:50:09.164Z,12.28
2022-10-14T21:53:15.360Z,12.46
2022-10-14T21:56:20.111Z,12.69
2022-10-14T21:59:23.688Z,12.58
2022-10-14T22:02:27.342Z,12.53
2022-10-14T22:05:34.459Z,12.63
2022-10-14T22:08:40.808Z,12.78
2022-10-14T22:11:44.438Z,12.58
2022-10-14T22:14:48.084Z,12.83
2022-10-14T22:17:51.902Z,12.80
2022-10-14T22:21:05.054Z,12.74
2022-10-14T22:24:09.663Z,12.69
2022-10-14T22:27:13.272Z,12.91
2022-10-14T22:30:16.970Z,12.87
2022-10-14T22:33:20.494Z,13.01
2022-10-14T22:36:28.212Z,13.09
2022-10-14T22:39:31.746Z,13.27
2022-10-14T22:42:36.934Z,12.95
2022-10-14T22:45:42.726Z,13.19
2022-10-14T22:48:46.774Z,13.04
2022-10-14T22:51:54.548Z,13.03
2022-10-14T22:55:00.354Z,13.26
2022-10-14T22:58:03.938Z,13.07
2022-10-14T23:01:08.791Z,13.30
2022-10-14T23:04:12.907Z,13.19
2022-10-14T23:07:17.865Z,13.01
2022-10-14T23:10:21.412Z,13.13
2022-10-14T23:13:24.990Z,13.11
2022-10-14T23:16:29.319Z,13.08
2022-10-14T23:19:33.251Z,13.07
2022-10-14T23:22:38.358Z,13.00
2022-10-14T23:25:42.150Z,12.96
2022-10-14T23:28:49.898Z,12.71
2022-10-14T23:31:53.483Z,12.84
2022-10-14T23:34:57.052Z,12.92
